sensor_id;sensor_type;location;lat;lon;timestamp;P1;durP1;ratioP1;P2;durP2;ratioP2
68208;SDS011;55662;47.488;19.074;2022-07-01T00:17:24;12.60;;;7.85;;
68208;SDS011;55662;47.488;19.074;2022-07-01T00:37:27;10.32;;;7.22;;
68208;SDS011;55662;47.488;19.074;2022-07-01T00:57:31;13.73;;;9.90;;
68208;SDS011;55662;47.488;19.074;2022-07-01T01:17:36;13.87;;;7.83;;
68208;SDS011;55662;47.488;19.074;2022-07-01T01:37:40;14.87;;;7.20;;
68208;SDS011;55662;47.488;19.074;2022-07-01T01:57:44;9.43;;;6.82;;
68208;SDS011;55662;47.488;19.074;2022-07-01T02:17:47;11.37;;;7.83;;
68208;SDS011;55662;47.488;19.074;2022-07-01T02:37:51;11.60;;;7.40;;
68208;SDS011;55662;47.488;19.074;2022-07-01T02:57:54;12.52;;;8.73;;
68208;SDS011;55662;47.488;19.074;2022-07-01T03:17:58;16.20;;;10.07;;
68208;SDS011;55662;47.488;19.074;2022-07-01T03:38:02;18.33;;;10.00;;
68208;SDS011;55662;47.488;19.074;2022-07-01T03:58:06;14.98;;;9.30;;
68208;SDS011;55662;47.488;19.074;2022-07-01T04:18:10;12.10;;;8.27;;
68208;SDS011;55662;47.488;19.074;2022-07-01T04:38:13;16.07;;;8.80;;
68208;SDS011;55662;47.488;19.074;2022-07-01T04:58:17;14.17;;;8.87;;
68208;SDS011;55662;47.488;19.074;2022-07-01T05:18:20;14.80;;;8.55;;
68208;SDS011;55662;47.488;19.074;2022-07-01T05:38:42;16.65;;;10.65;;
68208;SDS011;55662;47.488;19.074;2022-07-01T05:58:45;19.77;;;10.90;;
68208;SDS011;55662;47.488;19.074;2022-07-01T06:18:49;17.30;;;10.33;;
68208;SDS011;55662;47.488;19.074;2022-07-01T06:38:52;17.37;;;9.80;;
68208;SDS011;55662;47.488;19.074;2022-07-01T06:58:55;15.18;;;9.45;;
68208;SDS011;55662;47.488;19.074;2022-07-01T07:18:59;24.17;;;9.80;;
68208;SDS011;55662;47.488;19.074;2022-07-01T07:39:02;22.53;;;8.80;;
68208;SDS011;55662;47.488;19.074;2022-07-01T07:59:08;30.67;;;8.10;;
68208;SDS011;55662;47.488;19.074;2022-07-01T08:19:11;19.42;;;6.25;;
68208;SDS011;55662;47.488;19.074;2022-07-01T08:39:14;16.55;;;7.07;;
68208;SDS011;55662;47.488;19.074;2022-07-01T08:59:23;11.77;;;6.97;;
68208;SDS011;55662;47.488;19.074;2022-07-01T09:19:29;12.85;;;6.95;;
68208;SDS011;55662;47.488;19.074;2022-07-01T09:40:08;10.75;;;7.93;;
68208;SDS011;55662;47.488;19.074;2022-07-01T10:17:31;17.45;;;9.27;;
68208;SDS011;55662;47.488;19.074;2022-07-01T10:37:55;10.57;;;7.27;;
68208;SDS011;55662;47.488;19.074;2022-07-01T10:58:00;10.13;;;5.47;;
68208;SDS011;55662;47.488;19.074;2022-07-01T11:18:03;14.80;;;6.25;;
68208;SDS011;55662;47.488;19.074;2022-07-01T11:58:46;13.17;;;7.50;;
68208;SDS011;55662;47.488;19.074;2022-07-01T12:18:55;10.17;;;6.23;;
68208;SDS011;55662;47.488;19.074;2022-07-01T12:39:04;11.25;;;5.95;;
68208;SDS011;55662;47.488;19.074;2022-07-01T12:59:09;11.35;;;6.85;;
68208;SDS011;55662;47.488;19.074;2022-07-01T13:19:13;14.15;;;7.25;;
68208;SDS011;55662;47.488;19.074;2022-07-01T13:39:18;10.83;;;7.73;;
68208;SDS011;55662;47.488;19.074;2022-07-01T13:59:22;10.57;;;7.43;;
68208;SDS011;55662;47.488;19.074;2022-07-01T14:19:25;10.88;;;7.25;;
68208;SDS011;55662;47.488;19.074;2022-07-01T14:39:30;13.05;;;7.75;;
68208;SDS011;55662;47.488;19.074;2022-07-01T14:59:33;14.33;;;9.13;;
68208;SDS011;55662;47.488;19.074;2022-07-01T15:19:37;13.02;;;9.75;;
68208;SDS011;55662;47.488;19.074;2022-07-01T15:39:43;13.18;;;7.80;;
68208;SDS011;55662;47.488;19.074;2022-07-01T15:59:46;12.07;;;7.85;;
68208;SDS011;55662;47.488;19.074;2022-07-01T16:19:51;15.33;;;7.90;;
68208;SDS011;55662;47.488;19.074;2022-07-01T16:39:57;12.27;;;8.10;;
68208;SDS011;55662;47.488;19.074;2022-07-01T17:00:04;12.82;;;9.35;;
68208;SDS011;55662;47.488;19.074;2022-07-01T17:20:09;21.73;;;10.77;;
68208;SDS011;55662;47.488;19.074;2022-07-01T17:40:13;13.57;;;11.70;;
68208;SDS011;55662;47.488;19.074;2022-07-01T18:00:21;15.73;;;9.37;;
68208;SDS011;55662;47.488;19.074;2022-07-01T18:40:34;14.93;;;9.90;;
68208;SDS011;55662;47.488;19.074;2022-07-01T19:00:39;12.88;;;9.07;;
68208;SDS011;55662;47.488;19.074;2022-07-01T19:20:44;12.20;;;7.53;;
68208;SDS011;55662;47.488;19.074;2022-07-01T19:40:48;12.50;;;6.67;;
68208;SDS011;55662;47.488;19.074;2022-07-01T20:00:51;12.77;;;6.07;;
68208;SDS011;55662;47.488;19.074;2022-07-01T20:20:54;33.90;;;8.60;;
68208;SDS011;55662;47.488;19.074;2022-07-01T20:40:58;14.83;;;4.97;;
68208;SDS011;55662;47.488;19.074;2022-07-01T21:01:01;11.60;;;2.63;;
68208;SDS011;55662;47.488;19.074;2022-07-01T21:21:04;9.52;;;3.30;;
68208;SDS011;55662;47.488;19.074;2022-07-01T21:41:09;10.52;;;3.80;;
68208;SDS011;55662;47.488;19.074;2022-07-01T22:01:16;6.10;;;3.97;;
68208;SDS011;55662;47.488;19.074;2022-07-01T22:21:20;9.88;;;5.68;;
68208;SDS011;55662;47.488;19.074;2022-07-01T22:41:29;7.60;;;5.12;;
68208;SDS011;55662;47.488;19.074;2022-07-01T23:01:33;8.17;;;4.77;;
68208;SDS011;55662;47.488;19.074;2022-07-01T23:21:43;7.40;;;4.07;;
68208;SDS011;55662;47.488;19.074;2022-07-01T23:41:46;6.15;;;4.07;;
